sensor_id;sensor_type;location;lat;lon;timestamp;P1;durP1;ratioP1;P2;durP2;ratioP2
14688;SDS011;7432;48.728;9.154;2022-07-25T00:00:35;12.13;;;11.20;;
14688;SDS011;7432;48.728;9.154;2022-07-25T00:03:02;11.88;;;10.88;;
14688;SDS011;7432;48.728;9.154;2022-07-25T00:05:28;12.40;;;11.40;;
14688;SDS011;7432;48.728;9.154;2022-07-25T00:07:55;12.50;;;11.50;;
14688;SDS011;7432;48.728;9.154;2022-07-25T00:10:21;12.75;;;11.82;;
14688;SDS011;7432;48.728;9.154;2022-07-25T00:12:48;12.07;;;11.10;;
14688;SDS011;7432;48.728;9.154;2022-07-25T00:15:16;12.13;;;11.07;;
14688;SDS011;7432;48.728;9.154;2022-07-25T00:17:42;12.77;;;11.77;;
14688;SDS011;7432;48.728;9.154;2022-07-25T00:20:09;12.93;;;11.70;;
14688;SDS011;7432;48.728;9.154;2022-07-25T00:22:36;12.43;;;11.20;;
14688;SDS011;7432;48.728;9.154;2022-07-25T00:25:03;11.60;;;10.70;;
14688;SDS011;7432;48.728;9.154;2022-07-25T00:27:30;12.50;;;11.50;;
14688;SDS011;7432;48.728;9.154;2022-07-25T00:29:56;11.93;;;10.93;;
14688;SDS011;7432;48.728;9.154;2022-07-25T00:32:24;11.57;;;10.50;;
14688;SDS011;7432;48.728;9.154;2022-07-25T00:34:50;12.30;;;11.10;;
14688;SDS011;7432;48.728;9.154;2022-07-25T00:37:17;12.27;;;11.27;;
14688;SDS011;7432;48.728;9.154;2022-07-25T00:39:43;11.50;;;10.60;;
14688;SDS011;7432;48.728;9.154;2022-07-25T00:42:10;12.40;;;11.40;;
14688;SDS011;7432;48.728;9.154;2022-07-25T00:44:36;11.57;;;10.57;;
14688;SDS011;7432;48.728;9.154;2022-07-25T00:47:03;12.43;;;11.43;;
14688;SDS011;7432;48.728;9.154;2022-07-25T00:49:31;12.10;;;11.20;;
14688;SDS011;7432;48.728;9.154;2022-07-25T00:51:57;12.33;;;11.27;;
14688;SDS011;7432;48.728;9.154;2022-07-25T00:54:24;12.47;;;11.47;;
14688;SDS011;7432;48.728;9.154;2022-07-25T00:56:50;13.10;;;11.97;;
14688;SDS011;7432;48.728;9.154;2022-07-25T00:59:17;12.43;;;11.30;;
14688;SDS011;7432;48.728;9.154;2022-07-25T01:01:43;12.53;;;11.33;;
14688;SDS011;7432;48.728;9.154;2022-07-25T01:04:12;12.70;;;11.60;;
14688;SDS011;7432;48.728;9.154;2022-07-25T01:06:40;12.37;;;11.37;;
14688;SDS011;7432;48.728;9.154;2022-07-25T01:09:07;12.27;;;11.13;;
14688;SDS011;7432;48.728;9.154;2022-07-25T01:11:34;12.47;;;11.33;;
14688;SDS011;7432;48.728;9.154;2022-07-25T01:14:00;11.67;;;10.67;;
14688;SDS011;7432;48.728;9.154;2022-07-25T01:16:27;12.43;;;11.43;;
14688;SDS011;7432;48.728;9.154;2022-07-25T01:18:53;12.50;;;11.50;;
14688;SDS011;7432;48.728;9.154;2022-07-25T01:21:22;12.77;;;11.67;;
14688;SDS011;7432;48.728;9.154;2022-07-25T01:23:49;13.43;;;12.13;;
14688;SDS011;7432;48.728;9.154;2022-07-25T01:26:15;12.33;;;11.33;;
14688;SDS011;7432;48.728;9.154;2022-07-25T01:28:42;12.73;;;11.40;;
14688;SDS011;7432;48.728;9.154;2022-07-25T01:31:09;12.90;;;11.80;;
14688;SDS011;7432;48.728;9.154;2022-07-25T01:33:35;13.43;;;12.33;;
14688;SDS011;7432;48.728;9.154;2022-07-25T01:36:02;13.43;;;12.23;;
14688;SDS011;7432;48.728;9.154;2022-07-25T01:38:30;12.93;;;11.83;;
14688;SDS011;7432;48.728;9.154;2022-07-25T01:40:56;13.20;;;11.90;;
14688;SDS011;7432;48.728;9.154;2022-07-25T01:43:23;13.20;;;12.13;;
14688;SDS011;7432;48.728;9.154;2022-07-25T01:45:49;14.07;;;12.97;;
14688;SDS011;7432;48.728;9.154;2022-07-25T01:48:16;13.87;;;12.67;;
14688;SDS011;7432;48.728;9.154;2022-07-25T01:50:43;13.63;;;12.53;;
14688;SDS011;7432;48.728;9.154;2022-07-25T01:53:09;12.97;;;11.97;;
14688;SDS011;7432;48.728;9.154;2022-07-25T01:55:37;13.90;;;12.50;;
14688;SDS011;7432;48.728;9.154;2022-07-25T01:58:03;13.20;;;12.03;;
14688;SDS011;7432;48.728;9.154;2022-07-25T02:00:30;13.80;;;12.57;;
14688;SDS011;7432;48.728;9.154;2022-07-25T02:02:56;13.97;;;12.57;;
14688;SDS011;7432;48.728;9.154;2022-07-25T02:05:40;12.93;;;11.93;;
14688;SDS011;7432;48.728;9.154;2022-07-25T02:08:07;13.43;;;12.23;;
14688;SDS011;7432;48.728;9.154;2022-07-25T02:10:33;13.00;;;11.90;;
14688;SDS011;7432;48.728;9.154;2022-07-25T02:13:01;13.90;;;12.70;;
14688;SDS011;7432;48.728;9.154;2022-07-25T02:15:28;13.50;;;12.50;;
14688;SDS011;7432;48.728;9.154;2022-07-25T02:17:54;13.47;;;12.27;;
14688;SDS011;7432;48.728;9.154;2022-07-25T02:20:21;12.50;;;11.50;;
14688;SDS011;7432;48.728;9.154;2022-07-25T02:22:47;12.83;;;11.77;;
14688;SDS011;7432;48.728;9.154;2022-07-25T02:25:13;12.80;;;11.70;;
14688;SDS011;7432;48.728;9.154;2022-07-25T02:27:40;14.13;;;12.73;;
14688;SDS011;7432;48.728;9.154;2022-07-25T02:30:08;12.90;;;11.83;;
14688;SDS011;7432;48.728;9.154;2022-07-25T02:32:35;12.63;;;11.63;;
14688;SDS011;7432;48.728;9.154;2022-07-25T02:35:02;12.67;;;11.60;;
14688;SDS011;7432;48.728;9.154;2022-07-25T02:37:29;13.03;;;11.83;;
14688;SDS011;7432;48.728;9.154;2022-07-25T02:39:55;12.43;;;11.33;;
14688;SDS011;7432;48.728;9.154;2022-07-25T02:42:22;12.60;;;11.60;;
14688;SDS011;7432;48.728;9.154;2022-07-25T02:44:48;12.63;;;11.73;;
14688;SDS011;7432;48.728;9.154;2022-07-25T02:47:16;12.47;;;11.37;;
14688;SDS011;7432;48.728;9.154;2022-07-25T02:49:42;12.93;;;11.90;;
14688;SDS011;7432;48.728;9.154;2022-07-25T02:52:09;12.27;;;11.27;;
14688;SDS011;7432;48.728;9.154;2022-07-25T02:54:35;12.40;;;11.30;;
14688;SDS011;7432;48.728;9.154;2022-07-25T02:57:02;12.90;;;11.90;;
14688;SDS011;7432;48.728;9.154;2022-07-25T02:59:28;13.13;;;12.03;;
14688;SDS011;7432;48.728;9.154;2022-07-25T03:01:55;12.50;;;11.50;;
14688;SDS011;7432;48.728;9.154;2022-07-25T03:04:23;12.67;;;11.67;;
14688;SDS011;7432;48.728;9.154;2022-07-25T03:06:49;13.30;;;12.07;;
14688;SDS011;7432;48.728;9.154;2022-07-25T03:09:15;12.77;;;11.87;;
14688;SDS011;7432;48.728;9.154;2022-07-25T03:11:43;13.17;;;12.07;;
14688;SDS011;7432;48.728;9.154;2022-07-25T03:14:09;12.50;;;11.60;;
14688;SDS011;7432;48.728;9.154;2022-07-25T03:16:35;12.70;;;11.50;;
14688;SDS011;7432;48.728;9.154;2022-07-25T03:19:02;13.20;;;12.10;;
14688;SDS011;7432;48.728;9.154;2022-07-25T03:21:30;12.73;;;11.73;;
14688;SDS011;7432;48.728;9.154;2022-07-25T03:23:56;12.90;;;11.67;;
14688;SDS011;7432;48.728;9.154;2022-07-25T03:26:23;13.00;;;12.00;;
14688;SDS011;7432;48.728;9.154;2022-07-25T03:28:49;14.87;;;13.57;;
14688;SDS011;7432;48.728;9.154;2022-07-25T03:31:15;14.23;;;13.07;;
14688;SDS011;7432;48.728;9.154;2022-07-25T03:33:42;13.83;;;12.77;;
14688;SDS011;7432;48.728;9.154;2022-07-25T03:36:08;14.03;;;12.83;;
14688;SDS011;7432;48.728;9.154;2022-07-25T03:38:36;13.83;;;12.63;;
14688;SDS011;7432;48.728;9.154;2022-07-25T03:41:03;13.80;;;12.73;;
14688;SDS011;7432;48.728;9.154;2022-07-25T03:43:30;13.83;;;12.53;;
14688;SDS011;7432;48.728;9.154;2022-07-25T03:45:56;14.07;;;12.97;;
14688;SDS011;7432;48.728;9.154;2022-07-25T03:48:23;13.60;;;12.40;;
14688;SDS011;7432;48.728;9.154;2022-07-25T03:50:49;13.10;;;12.00;;
14688;SDS011;7432;48.728;9.154;2022-07-25T03:53:15;13.43;;;12.23;;
14688;SDS011;7432;48.728;9.154;2022-07-25T03:55:43;13.10;;;12.10;;
14688;SDS011;7432;48.728;9.154;2022-07-25T03:58:10;14.07;;;12.77;;
14688;SDS011;7432;48.728;9.154;2022-07-25T04:00:36;13.57;;;12.20;;
14688;SDS011;7432;48.728;9.154;2022-07-25T04:03:03;14.27;;;12.97;;
14688;SDS011;7432;48.728;9.154;2022-07-25T04:05:29;12.90;;;11.80;;
14688;SDS011;7432;48.728;9.154;2022-07-25T04:07:56;13.70;;;12.37;;
14688;SDS011;7432;48.728;9.154;2022-07-25T04:10:22;13.40;;;12.20;;
14688;SDS011;7432;48.728;9.154;2022-07-25T04:12:50;13.53;;;12.43;;
14688;SDS011;7432;48.728;9.154;2022-07-25T04:15:17;14.23;;;13.03;;
14688;SDS011;7432;48.728;9.154;2022-07-25T04:17:43;13.90;;;12.60;;
14688;SDS011;7432;48.728;9.154;2022-07-25T04:20:10;13.30;;;12.20;;
14688;SDS011;7432;48.728;9.154;2022-07-25T04:22:37;13.73;;;12.43;;
14688;SDS011;7432;48.728;9.154;2022-07-25T04:25:04;14.03;;;12.93;;
14688;SDS011;7432;48.728;9.154;2022-07-25T04:27:31;14.13;;;12.83;;
14688;SDS011;7432;48.728;9.154;2022-07-25T04:29:59;15.23;;;13.77;;
14688;SDS011;7432;48.728;9.154;2022-07-25T04:32:25;14.17;;;12.90;;
14688;SDS011;7432;48.728;9.154;2022-07-25T04:34:51;13.80;;;12.47;;
14688;SDS011;7432;48.728;9.154;2022-07-25T04:37:19;13.83;;;12.50;;
14688;SDS011;7432;48.728;9.154;2022-07-25T04:39:45;13.87;;;12.53;;
14688;SDS011;7432;48.728;9.154;2022-07-25T04:42:12;13.90;;;12.70;;
14688;SDS011;7432;48.728;9.154;2022-07-25T04:44:38;14.53;;;13.23;;
14688;SDS011;7432;48.728;9.154;2022-07-25T04:47:06;13.97;;;12.67;;
14688;SDS011;7432;48.728;9.154;2022-07-25T04:49:32;14.97;;;13.30;;
14688;SDS011;7432;48.728;9.154;2022-07-25T04:51:59;15.77;;;13.30;;
14688;SDS011;7432;48.728;9.154;2022-07-25T04:54:25;14.40;;;13.00;;
14688;SDS011;7432;48.728;9.154;2022-07-25T04:56:52;13.70;;;12.53;;
14688;SDS011;7432;48.728;9.154;2022-07-25T04:59:18;13.57;;;12.37;;
14688;SDS011;7432;48.728;9.154;2022-07-25T05:01:45;13.40;;;12.20;;
14688;SDS011;7432;48.728;9.154;2022-07-25T05:04:12;13.97;;;12.17;;
14688;SDS011;7432;48.728;9.154;2022-07-25T05:06:39;15.03;;;13.43;;
14688;SDS011;7432;48.728;9.154;2022-07-25T05:09:05;13.47;;;12.27;;
14688;SDS011;7432;48.728;9.154;2022-07-25T05:11:32;12.80;;;11.80;;
14688;SDS011;7432;48.728;9.154;2022-07-25T05:13:58;13.20;;;12.00;;
14688;SDS011;7432;48.728;9.154;2022-07-25T05:16:25;12.80;;;11.80;;
14688;SDS011;7432;48.728;9.154;2022-07-25T05:18:51;13.13;;;12.07;;
14688;SDS011;7432;48.728;9.154;2022-07-25T05:21:19;12.83;;;11.83;;
14688;SDS011;7432;48.728;9.154;2022-07-25T05:23:45;12.20;;;11.30;;
14688;SDS011;7432;48.728;9.154;2022-07-25T05:26:12;12.38;;;11.30;;
14688;SDS011;7432;48.728;9.154;2022-07-25T05:28:38;13.57;;;12.37;;
14688;SDS011;7432;48.728;9.154;2022-07-25T05:31:05;13.02;;;12.00;;
14688;SDS011;7432;48.728;9.154;2022-07-25T05:33:32;12.65;;;11.65;;
14688;SDS011;7432;48.728;9.154;2022-07-25T05:35:59;13.77;;;12.35;;
14688;SDS011;7432;48.728;9.154;2022-07-25T05:38:28;12.13;;;11.18;;
14688;SDS011;7432;48.728;9.154;2022-07-25T05:40:55;12.63;;;11.52;;
14688;SDS011;7432;48.728;9.154;2022-07-25T05:43:21;11.82;;;10.93;;
14688;SDS011;7432;48.728;9.154;2022-07-25T05:45:47;12.13;;;11.20;;
14688;SDS011;7432;48.728;9.154;2022-07-25T05:48:14;12.60;;;11.55;;
14688;SDS011;7432;48.728;9.154;2022-07-25T05:50:41;12.77;;;11.77;;
14688;SDS011;7432;48.728;9.154;2022-07-25T05:53:07;12.50;;;11.50;;
14688;SDS011;7432;48.728;9.154;2022-07-25T05:55:35;13.57;;;12.23;;
14688;SDS011;7432;48.728;9.154;2022-07-25T05:58:01;12.35;;;11.32;;
14688;SDS011;7432;48.728;9.154;2022-07-25T06:00:28;12.20;;;11.30;;
14688;SDS011;7432;48.728;9.154;2022-07-25T06:02:56;12.82;;;11.63;;
14688;SDS011;7432;48.728;9.154;2022-07-25T06:05:24;12.85;;;11.57;;
14688;SDS011;7432;48.728;9.154;2022-07-25T06:07:50;12.85;;;11.75;;
14688;SDS011;7432;48.728;9.154;2022-07-25T06:10:17;12.02;;;10.95;;
14688;SDS011;7432;48.728;9.154;2022-07-25T06:12:45;12.23;;;11.23;;
14688;SDS011;7432;48.728;9.154;2022-07-25T06:15:12;11.50;;;10.60;;
14688;SDS011;7432;48.728;9.154;2022-07-25T06:17:38;12.27;;;11.07;;
14688;SDS011;7432;48.728;9.154;2022-07-25T06:20:05;12.27;;;11.32;;
14688;SDS011;7432;48.728;9.154;2022-07-25T06:22:32;12.60;;;11.68;;
14688;SDS011;7432;48.728;9.154;2022-07-25T06:25:00;11.57;;;10.68;;
14688;SDS011;7432;48.728;9.154;2022-07-25T06:27:26;11.60;;;10.60;;
14688;SDS011;7432;48.728;9.154;2022-07-25T06:29:54;10.65;;;9.85;;
14688;SDS011;7432;48.728;9.154;2022-07-25T06:32:20;11.10;;;10.40;;
14688;SDS011;7432;48.728;9.154;2022-07-25T06:34:47;10.55;;;9.85;;
14688;SDS011;7432;48.728;9.154;2022-07-25T06:37:13;10.93;;;10.13;;
14688;SDS011;7432;48.728;9.154;2022-07-25T06:39:40;11.05;;;10.25;;
14688;SDS011;7432;48.728;9.154;2022-07-25T06:42:06;10.20;;;9.40;;
14688;SDS011;7432;48.728;9.154;2022-07-25T06:44:33;9.70;;;9.02;;
14688;SDS011;7432;48.728;9.154;2022-07-25T06:47:01;10.48;;;9.77;;
14688;SDS011;7432;48.728;9.154;2022-07-25T06:49:29;10.00;;;9.20;;
14688;SDS011;7432;48.728;9.154;2022-07-25T06:51:56;10.55;;;9.70;;
14688;SDS011;7432;48.728;9.154;2022-07-25T06:54:22;10.30;;;9.57;;
14688;SDS011;7432;48.728;9.154;2022-07-25T06:56:49;9.55;;;8.82;;
14688;SDS011;7432;48.728;9.154;2022-07-25T06:59:15;9.63;;;9.02;;
14688;SDS011;7432;48.728;9.154;2022-07-25T07:01:42;8.80;;;8.20;;
14688;SDS011;7432;48.728;9.154;2022-07-25T07:04:09;9.40;;;8.80;;
14688;SDS011;7432;48.728;9.154;2022-07-25T07:06:36;9.20;;;8.55;;
14688;SDS011;7432;48.728;9.154;2022-07-25T07:09:03;9.30;;;8.70;;
14688;SDS011;7432;48.728;9.154;2022-07-25T07:11:30;9.05;;;8.45;;
14688;SDS011;7432;48.728;9.154;2022-07-25T07:13:58;9.02;;;8.50;;
14688;SDS011;7432;48.728;9.154;2022-07-25T07:16:24;8.93;;;8.23;;
14688;SDS011;7432;48.728;9.154;2022-07-25T07:18:51;9.40;;;8.70;;
14688;SDS011;7432;48.728;9.154;2022-07-25T07:21:19;8.57;;;7.93;;
14688;SDS011;7432;48.728;9.154;2022-07-25T07:23:45;9.60;;;8.90;;
14688;SDS011;7432;48.728;9.154;2022-07-25T07:26:12;9.18;;;8.57;;
14688;SDS011;7432;48.728;9.154;2022-07-25T07:28:38;8.40;;;7.90;;
14688;SDS011;7432;48.728;9.154;2022-07-25T07:31:05;8.48;;;7.88;;
14688;SDS011;7432;48.728;9.154;2022-07-25T07:33:31;9.25;;;8.55;;
14688;SDS011;7432;48.728;9.154;2022-07-25T07:35:58;9.07;;;8.38;;
14688;SDS011;7432;48.728;9.154;2022-07-25T07:38:26;9.15;;;8.55;;
14688;SDS011;7432;48.728;9.154;2022-07-25T07:40:52;9.18;;;8.57;;
14688;SDS011;7432;48.728;9.154;2022-07-25T07:43:19;9.18;;;8.52;;
14688;SDS011;7432;48.728;9.154;2022-07-25T07:45:46;8.77;;;8.15;;
14688;SDS011;7432;48.728;9.154;2022-07-25T07:48:12;8.57;;;7.93;;
14688;SDS011;7432;48.728;9.154;2022-07-25T07:50:39;8.82;;;8.23;;
14688;SDS011;7432;48.728;9.154;2022-07-25T07:53:05;8.80;;;8.10;;
14688;SDS011;7432;48.728;9.154;2022-07-25T07:55:33;8.15;;;7.65;;
14688;SDS011;7432;48.728;9.154;2022-07-25T07:58:19;8.70;;;8.20;;
14688;SDS011;7432;48.728;9.154;2022-07-25T08:00:46;8.63;;;8.05;;
14688;SDS011;7432;48.728;9.154;2022-07-25T08:03:16;8.32;;;7.82;;
14688;SDS011;7432;48.728;9.154;2022-07-25T08:05:44;9.07;;;8.40;;
14688;SDS011;7432;48.728;9.154;2022-07-25T08:08:12;8.65;;;7.80;;
14688;SDS011;7432;48.728;9.154;2022-07-25T08:10:42;7.68;;;7.18;;
14688;SDS011;7432;48.728;9.154;2022-07-25T08:13:13;7.95;;;7.45;;
14688;SDS011;7432;48.728;9.154;2022-07-25T08:15:40;8.18;;;7.68;;
14688;SDS011;7432;48.728;9.154;2022-07-25T08:18:07;8.00;;;7.47;;
14688;SDS011;7432;48.728;9.154;2022-07-25T08:20:34;9.10;;;8.35;;
14688;SDS011;7432;48.728;9.154;2022-07-25T08:23:01;8.23;;;7.72;;
14688;SDS011;7432;48.728;9.154;2022-07-25T08:25:28;8.52;;;7.93;;
14688;SDS011;7432;48.728;9.154;2022-07-25T08:27:56;8.15;;;7.68;;
14688;SDS011;7432;48.728;9.154;2022-07-25T08:30:23;8.48;;;7.88;;
14688;SDS011;7432;48.728;9.154;2022-07-25T08:32:51;7.85;;;7.25;;
14688;SDS011;7432;48.728;9.154;2022-07-25T08:35:20;8.80;;;8.20;;
14688;SDS011;7432;48.728;9.154;2022-07-25T08:37:48;8.32;;;7.75;;
14688;SDS011;7432;48.728;9.154;2022-07-25T08:40:16;8.05;;;7.60;;
14688;SDS011;7432;48.728;9.154;2022-07-25T08:42:43;8.48;;;7.90;;
14688;SDS011;7432;48.728;9.154;2022-07-25T08:45:12;7.78;;;7.18;;
14688;SDS011;7432;48.728;9.154;2022-07-25T08:47:42;7.88;;;7.38;;
14688;SDS011;7432;48.728;9.154;2022-07-25T08:50:10;8.23;;;7.72;;
14688;SDS011;7432;48.728;9.154;2022-07-25T08:52:37;8.10;;;7.50;;
14688;SDS011;7432;48.728;9.154;2022-07-25T08:55:05;8.23;;;7.57;;
14688;SDS011;7432;48.728;9.154;2022-07-25T08:57:33;8.30;;;7.70;;
14688;SDS011;7432;48.728;9.154;2022-07-25T09:00:01;8.23;;;7.72;;
14688;SDS011;7432;48.728;9.154;2022-07-25T09:02:30;8.20;;;7.80;;
14688;SDS011;7432;48.728;9.154;2022-07-25T09:04:57;8.18;;;7.68;;
14688;SDS011;7432;48.728;9.154;2022-07-25T09:07:31;8.77;;;8.00;;
14688;SDS011;7432;48.728;9.154;2022-07-25T09:09:59;8.90;;;8.30;;
14688;SDS011;7432;48.728;9.154;2022-07-25T09:12:37;8.60;;;8.00;;
14688;SDS011;7432;48.728;9.154;2022-07-25T09:15:05;8.30;;;7.63;;
14688;SDS011;7432;48.728;9.154;2022-07-25T09:17:34;8.10;;;7.50;;
14688;SDS011;7432;48.728;9.154;2022-07-25T09:20:01;7.85;;;7.43;;
14688;SDS011;7432;48.728;9.154;2022-07-25T09:22:30;8.35;;;7.82;;
14688;SDS011;7432;48.728;9.154;2022-07-25T09:24:57;8.48;;;7.88;;
14688;SDS011;7432;48.728;9.154;2022-07-25T09:27:23;8.50;;;7.90;;
14688;SDS011;7432;48.728;9.154;2022-07-25T09:29:50;8.00;;;7.40;;
14688;SDS011;7432;48.728;9.154;2022-07-25T09:32:17;8.30;;;7.80;;
14688;SDS011;7432;48.728;9.154;2022-07-25T09:34:47;7.68;;;7.18;;
14688;SDS011;7432;48.728;9.154;2022-07-25T09:37:15;8.05;;;7.45;;
14688;SDS011;7432;48.728;9.154;2022-07-25T09:39:43;8.43;;;7.65;;
14688;SDS011;7432;48.728;9.154;2022-07-25T09:42:21;8.40;;;7.50;;
14688;SDS011;7432;48.728;9.154;2022-07-25T09:44:56;8.48;;;7.78;;
14688;SDS011;7432;48.728;9.154;2022-07-25T09:47:24;9.00;;;8.20;;
14688;SDS011;7432;48.728;9.154;2022-07-25T09:49:52;8.32;;;7.70;;
14688;SDS011;7432;48.728;9.154;2022-07-25T09:52:19;8.20;;;7.50;;
14688;SDS011;7432;48.728;9.154;2022-07-25T09:54:45;8.30;;;7.80;;
14688;SDS011;7432;48.728;9.154;2022-07-25T09:57:12;7.95;;;7.35;;
14688;SDS011;7432;48.728;9.154;2022-07-25T09:59:38;8.80;;;8.20;;
14688;SDS011;7432;48.728;9.154;2022-07-25T10:02:06;8.40;;;7.72;;
14688;SDS011;7432;48.728;9.154;2022-07-25T10:04:40;8.57;;;7.80;;
14688;SDS011;7432;48.728;9.154;2022-07-25T10:07:12;9.23;;;8.43;;
14688;SDS011;7432;48.728;9.154;2022-07-25T10:09:41;8.68;;;8.00;;
14688;SDS011;7432;48.728;9.154;2022-07-25T10:12:09;8.50;;;8.00;;
14688;SDS011;7432;48.728;9.154;2022-07-25T10:14:37;8.27;;;7.78;;
14688;SDS011;7432;48.728;9.154;2022-07-25T10:17:04;8.95;;;8.30;;
14688;SDS011;7432;48.728;9.154;2022-07-25T10:19:35;8.10;;;7.60;;
14688;SDS011;7432;48.728;9.154;2022-07-25T10:22:06;8.20;;;7.70;;
14688;SDS011;7432;48.728;9.154;2022-07-25T10:24:33;8.93;;;8.27;;
14688;SDS011;7432;48.728;9.154;2022-07-25T10:27:06;8.77;;;8.18;;
14688;SDS011;7432;48.728;9.154;2022-07-25T10:29:33;8.57;;;8.02;;
14688;SDS011;7432;48.728;9.154;2022-07-25T10:32:04;9.27;;;8.75;;
14688;SDS011;7432;48.728;9.154;2022-07-25T10:34:31;9.32;;;8.65;;
14688;SDS011;7432;48.728;9.154;2022-07-25T10:37:07;8.88;;;8.30;;
14688;SDS011;7432;48.728;9.154;2022-07-25T10:39:37;9.20;;;8.60;;
14688;SDS011;7432;48.728;9.154;2022-07-25T10:42:05;9.30;;;8.70;;
14688;SDS011;7432;48.728;9.154;2022-07-25T10:44:38;8.80;;;8.20;;
14688;SDS011;7432;48.728;9.154;2022-07-25T10:47:08;8.70;;;8.20;;
14688;SDS011;7432;48.728;9.154;2022-07-25T10:49:37;8.88;;;8.20;;
14688;SDS011;7432;48.728;9.154;2022-07-25T10:52:05;9.75;;;9.05;;
14688;SDS011;7432;48.728;9.154;2022-07-25T10:54:32;9.20;;;8.60;;
14688;SDS011;7432;48.728;9.154;2022-07-25T10:57:02;8.75;;;8.15;;
14688;SDS011;7432;48.728;9.154;2022-07-25T10:59:30;7.65;;;7.22;;
14688;SDS011;7432;48.728;9.154;2022-07-25T11:01:58;7.47;;;7.07;;
14688;SDS011;7432;48.728;9.154;2022-07-25T11:04:25;7.90;;;7.45;;
14688;SDS011;7432;48.728;9.154;2022-07-25T11:06:52;8.23;;;7.63;;
14688;SDS011;7432;48.728;9.154;2022-07-25T11:09:19;8.13;;;7.55;;
14688;SDS011;7432;48.728;9.154;2022-07-25T11:11:48;7.50;;;7.10;;
14688;SDS011;7432;48.728;9.154;2022-07-25T11:14:18;7.80;;;7.10;;
14688;SDS011;7432;48.728;9.154;2022-07-25T11:16:47;7.53;;;7.03;;
14688;SDS011;7432;48.728;9.154;2022-07-25T11:19:16;7.20;;;6.70;;
14688;SDS011;7432;48.728;9.154;2022-07-25T11:21:46;7.40;;;7.00;;
14688;SDS011;7432;48.728;9.154;2022-07-25T11:24:13;7.75;;;7.15;;
14688;SDS011;7432;48.728;9.154;2022-07-25T11:26:43;7.32;;;6.82;;
14688;SDS011;7432;48.728;9.154;2022-07-25T11:29:18;7.10;;;6.70;;
14688;SDS011;7432;48.728;9.154;2022-07-25T11:31:52;7.45;;;7.05;;
14688;SDS011;7432;48.728;9.154;2022-07-25T11:34:20;7.35;;;6.95;;
14688;SDS011;7432;48.728;9.154;2022-07-25T11:36:48;7.50;;;7.00;;
14688;SDS011;7432;48.728;9.154;2022-07-25T11:39:15;7.85;;;7.25;;
14688;SDS011;7432;48.728;9.154;2022-07-25T11:41:42;7.90;;;7.30;;
14688;SDS011;7432;48.728;9.154;2022-07-25T11:44:08;7.85;;;7.35;;
14688;SDS011;7432;48.728;9.154;2022-07-25T11:46:41;7.75;;;7.25;;
14688;SDS011;7432;48.728;9.154;2022-07-25T11:49:08;8.20;;;7.70;;
14688;SDS011;7432;48.728;9.154;2022-07-25T11:51:35;8.38;;;7.88;;
14688;SDS011;7432;48.728;9.154;2022-07-25T11:54:06;8.30;;;7.80;;
14688;SDS011;7432;48.728;9.154;2022-07-25T11:56:36;7.18;;;6.78;;
14688;SDS011;7432;48.728;9.154;2022-07-25T11:59:03;7.97;;;7.55;;
14688;SDS011;7432;48.728;9.154;2022-07-25T12:01:34;8.13;;;7.72;;
14688;SDS011;7432;48.728;9.154;2022-07-25T12:04:10;8.05;;;7.65;;
14688;SDS011;7432;48.728;9.154;2022-07-25T12:06:38;9.15;;;8.35;;
14688;SDS011;7432;48.728;9.154;2022-07-25T12:09:12;8.75;;;8.15;;
14688;SDS011;7432;48.728;9.154;2022-07-25T12:11:40;8.73;;;8.20;;
14688;SDS011;7432;48.728;9.154;2022-07-25T12:14:07;8.43;;;7.90;;
14688;SDS011;7432;48.728;9.154;2022-07-25T12:16:34;8.55;;;7.95;;
14688;SDS011;7432;48.728;9.154;2022-07-25T12:19:02;8.73;;;8.10;;
14688;SDS011;7432;48.728;9.154;2022-07-25T12:21:30;9.18;;;8.57;;
14688;SDS011;7432;48.728;9.154;2022-07-25T12:23:57;9.43;;;8.85;;
14688;SDS011;7432;48.728;9.154;2022-07-25T12:26:23;9.63;;;9.00;;
14688;SDS011;7432;48.728;9.154;2022-07-25T12:28:49;10.35;;;9.65;;
14688;SDS011;7432;48.728;9.154;2022-07-25T12:31:16;9.45;;;8.85;;
14688;SDS011;7432;48.728;9.154;2022-07-25T12:33:42;9.20;;;8.63;;
14688;SDS011;7432;48.728;9.154;2022-07-25T12:36:10;9.80;;;9.20;;
14688;SDS011;7432;48.728;9.154;2022-07-25T12:38:38;9.43;;;8.90;;
14688;SDS011;7432;48.728;9.154;2022-07-25T12:41:05;9.23;;;8.63;;
14688;SDS011;7432;48.728;9.154;2022-07-25T12:43:31;10.30;;;9.60;;
14688;SDS011;7432;48.728;9.154;2022-07-25T12:45:58;9.93;;;9.32;;
14688;SDS011;7432;48.728;9.154;2022-07-25T12:48:24;9.90;;;9.15;;
14688;SDS011;7432;48.728;9.154;2022-07-25T12:50:51;9.40;;;8.77;;
14688;SDS011;7432;48.728;9.154;2022-07-25T12:53:17;9.15;;;8.63;;
14688;SDS011;7432;48.728;9.154;2022-07-25T12:55:45;10.02;;;9.23;;
14688;SDS011;7432;48.728;9.154;2022-07-25T12:58:11;9.27;;;8.68;;
14688;SDS011;7432;48.728;9.154;2022-07-25T13:00:39;9.50;;;9.00;;
14688;SDS011;7432;48.728;9.154;2022-07-25T13:03:05;10.80;;;10.10;;
14688;SDS011;7432;48.728;9.154;2022-07-25T13:05:32;10.55;;;9.85;;
14688;SDS011;7432;48.728;9.154;2022-07-25T13:07:58;11.60;;;10.82;;
14688;SDS011;7432;48.728;9.154;2022-07-25T13:10:25;10.73;;;9.93;;
14688;SDS011;7432;48.728;9.154;2022-07-25T13:12:52;11.30;;;10.27;;
14688;SDS011;7432;48.728;9.154;2022-07-25T13:15:20;11.18;;;10.32;;
14688;SDS011;7432;48.728;9.154;2022-07-25T13:17:47;10.65;;;9.80;;
14688;SDS011;7432;48.728;9.154;2022-07-25T13:20:14;10.00;;;9.40;;
14688;SDS011;7432;48.728;9.154;2022-07-25T13:22:40;9.68;;;9.07;;
14688;SDS011;7432;48.728;9.154;2022-07-25T13:25:07;10.40;;;9.55;;
14688;SDS011;7432;48.728;9.154;2022-07-25T13:27:34;10.07;;;9.48;;
14688;SDS011;7432;48.728;9.154;2022-07-25T13:30:04;10.82;;;9.95;;
14688;SDS011;7432;48.728;9.154;2022-07-25T13:32:32;10.45;;;9.85;;
14688;SDS011;7432;48.728;9.154;2022-07-25T13:34:59;9.73;;;9.02;;
14688;SDS011;7432;48.728;9.154;2022-07-25T13:37:25;9.68;;;9.07;;
14688;SDS011;7432;48.728;9.154;2022-07-25T13:39:52;10.50;;;9.70;;
14688;SDS011;7432;48.728;9.154;2022-07-25T13:42:18;10.88;;;10.18;;
14688;SDS011;7432;48.728;9.154;2022-07-25T13:44:44;10.68;;;10.00;;
14688;SDS011;7432;48.728;9.154;2022-07-25T13:47:13;10.75;;;10.05;;
14688;SDS011;7432;48.728;9.154;2022-07-25T13:49:39;10.85;;;9.95;;
14688;SDS011;7432;48.728;9.154;2022-07-25T13:52:06;9.98;;;9.38;;
14688;SDS011;7432;48.728;9.154;2022-07-25T13:54:32;10.30;;;9.50;;
14688;SDS011;7432;48.728;9.154;2022-07-25T13:57:00;10.75;;;9.75;;
14688;SDS011;7432;48.728;9.154;2022-07-25T13:59:27;10.55;;;9.95;;
14688;SDS011;7432;48.728;9.154;2022-07-25T14:01:54;10.85;;;10.00;;
14688;SDS011;7432;48.728;9.154;2022-07-25T14:04:21;10.95;;;10.15;;
14688;SDS011;7432;48.728;9.154;2022-07-25T14:06:48;11.07;;;10.38;;
14688;SDS011;7432;48.728;9.154;2022-07-25T14:09:16;11.95;;;10.85;;
14688;SDS011;7432;48.728;9.154;2022-07-25T14:11:43;10.90;;;10.20;;
14688;SDS011;7432;48.728;9.154;2022-07-25T14:14:10;10.77;;;10.07;;
14688;SDS011;7432;48.728;9.154;2022-07-25T14:16:36;11.43;;;10.50;;
14688;SDS011;7432;48.728;9.154;2022-07-25T14:19:02;11.43;;;10.57;;
14688;SDS011;7432;48.728;9.154;2022-07-25T14:21:30;11.25;;;10.35;;
14688;SDS011;7432;48.728;9.154;2022-07-25T14:23:57;11.60;;;10.57;;
14688;SDS011;7432;48.728;9.154;2022-07-25T14:26:24;10.60;;;9.50;;
14688;SDS011;7432;48.728;9.154;2022-07-25T14:28:52;11.77;;;10.77;;
14688;SDS011;7432;48.728;9.154;2022-07-25T14:31:19;10.57;;;9.77;;
14688;SDS011;7432;48.728;9.154;2022-07-25T14:33:46;10.98;;;10.25;;
14688;SDS011;7432;48.728;9.154;2022-07-25T14:36:12;11.50;;;10.70;;
14688;SDS011;7432;48.728;9.154;2022-07-25T14:38:40;10.90;;;10.20;;
14688;SDS011;7432;48.728;9.154;2022-07-25T14:41:07;10.68;;;9.88;;
14688;SDS011;7432;48.728;9.154;2022-07-25T14:43:34;11.23;;;10.25;;
14688;SDS011;7432;48.728;9.154;2022-07-25T14:46:00;10.88;;;10.05;;